createdAt,value
2019-05-10T00:01:43.149Z,81.84
2019-05-10T00:04:30.426Z,82.38
2019-05-10T00:07:17.627Z,83.17
2019-05-10T00:09:46.225Z,83.25
2019-05-10T00:14:57.991Z,83.07
2019-05-10T00:17:27.417Z,82.68
2019-05-10T00:19:56.809Z,82.46
2019-05-10T00:22:26.258Z,81.81
2019-05-10T00:25:03.637Z,81.90
2019-05-10T00:27:26.839Z,81.69
2019-05-10T00:29:56.252Z,81.74
2019-05-10T00:32:25.692Z,81.39
2019-05-10T00:34:55.046Z,81.52
2019-05-10T00:37:24.503Z,82.11
2019-05-10T00:39:53.948Z,82.77
2019-05-10T00:42:23.384Z,82.79
2019-05-10T00:44:52.826Z,82.72
2019-05-10T00:47:22.186Z,82.83
2019-05-10T00:49:51.634Z,82.61
2019-05-10T00:52:21.080Z,82.30
2019-05-10T00:54:50.469Z,82.13
2019-05-10T00:57:19.911Z,82.21
2019-05-10T00:59:49.273Z,82.93
2019-05-10T01:02:18.722Z,82.61
2019-05-10T01:04:48.144Z,82.71
2019-05-10T01:07:17.482Z,82.63
2019-05-10T01:09:46.926Z,83.04
2019-05-10T01:12:16.265Z,83.37
2019-05-10T01:14:45.690Z,83.03
2019-05-10T01:17:15.059Z,83.24
2019-05-10T01:19:44.442Z,83.56
2019-05-10T01:22:13.916Z,84.15
2019-05-10T01:24:43.291Z,84.63
2019-05-10T01:27:12.668Z,84.00
2019-05-10T01:29:42.099Z,84.31
2019-05-10T01:32:11.633Z,83.96
2019-05-10T01:34:41.008Z,83.87
2019-05-10T01:37:10.393Z,83.69
2019-05-10T01:39:39.833Z,83.44
2019-05-10T01:42:09.195Z,83.25
2019-05-10T01:44:38.568Z,83.70
2019-05-10T01:47:07.924Z,83.87
2019-05-10T01:49:37.304Z,84.58
2019-05-10T01:52:06.730Z,85.18
2019-05-10T01:54:36.097Z,84.16
2019-05-10T01:57:05.539Z,83.84
2019-05-10T01:59:34.881Z,83.80
2019-05-10T02:02:04.255Z,83.65
2019-05-10T02:04:33.686Z,84.23
2019-05-10T02:07:03.077Z,84.16
2019-05-10T02:09:33.357Z,83.84
2019-05-10T02:12:03.101Z,84.87
2019-05-10T02:14:32.517Z,84.74
2019-05-10T02:17:01.907Z,84.34
2019-05-10T02:19:31.273Z,83.67
2019-05-10T02:22:00.703Z,83.93
2019-05-10T02:24:30.068Z,83.72
2019-05-10T02:26:59.519Z,83.65
2019-05-10T02:29:28.960Z,83.78
2019-05-10T02:31:58.402Z,83.54
2019-05-10T02:34:27.846Z,83.85
2019-05-10T02:36:57.323Z,83.85
2019-05-10T02:39:26.729Z,84.31
2019-05-10T02:41:56.168Z,83.97
2019-05-10T02:44:25.515Z,83.61
2019-05-10T02:46:54.964Z,83.91
2019-05-10T02:49:24.341Z,84.20
2019-05-10T02:51:53.809Z,84.40
2019-05-10T02:54:23.241Z,84.11
2019-05-10T02:56:53.923Z,83.90
2019-05-10T02:59:24.098Z,83.70
2019-05-10T03:01:56.364Z,83.44
2019-05-10T03:04:27.706Z,83.30
2019-05-10T03:07:05.747Z,83.70
2019-05-10T03:09:35.464Z,83.67
2019-05-10T03:12:13.575Z,83.43
2019-05-10T03:14:42.945Z,83.56
2019-05-10T03:17:14.908Z,83.35
2019-05-10T03:19:44.834Z,83.87
2019-05-10T03:22:16.775Z,83.55
2019-05-10T03:24:46.235Z,84.04
2019-05-10T03:27:15.681Z,84.57
2019-05-10T03:29:45.677Z,84.88
2019-05-10T03:32:15.121Z,84.97
2019-05-10T03:34:44.569Z,85.11
2019-05-10T03:37:14.059Z,84.10
2019-05-10T03:39:43.514Z,84.08
2019-05-10T03:42:12.878Z,84.46
2019-05-10T03:44:42.330Z,83.39
2019-05-10T03:47:11.785Z,83.18
2019-05-10T03:49:41.164Z,81.77
2019-05-10T03:52:10.574Z,80.22
2019-05-10T03:54:39.968Z,78.33
2019-05-10T03:57:13.937Z,76.62
2019-05-10T03:59:40.624Z,75.67
2019-05-10T04:02:10.004Z,74.55
2019-05-10T04:04:39.480Z,73.31
2019-05-10T04:07:08.907Z,72.40
2019-05-10T04:09:38.340Z,72.69
2019-05-10T04:12:07.759Z,73.28
2019-05-10T04:14:37.272Z,74.19
2019-05-10T04:17:06.638Z,75.23
2019-05-10T04:19:36.135Z,76.29
2019-05-10T04:22:05.606Z,77.00
2019-05-10T04:24:36.384Z,77.16
2019-05-10T04:27:06.292Z,76.40
2019-05-10T04:29:35.705Z,75.84
2019-05-10T04:32:05.188Z,75.10
2019-05-10T04:34:34.808Z,74.53
2019-05-10T04:37:04.211Z,74.74
2019-05-10T04:39:33.578Z,74.94
2019-05-10T04:42:02.959Z,74.14
2019-05-10T04:44:32.448Z,74.70
2019-05-10T04:47:01.937Z,73.28
2019-05-10T04:49:31.378Z,72.83
2019-05-10T04:52:00.834Z,72.88
2019-05-10T04:54:30.314Z,71.49
2019-05-10T04:57:01.501Z,71.33
2019-05-10T04:59:30.959Z,72.50
2019-05-10T05:02:01.143Z,73.27
2019-05-10T05:04:30.689Z,72.60
2019-05-10T05:07:00.149Z,72.75
2019-05-10T05:09:29.631Z,72.63
2019-05-10T05:12:01.125Z,72.83
2019-05-10T05:14:30.589Z,72.49
2019-05-10T05:17:00.044Z,71.77
2019-05-10T05:19:29.484Z,71.79
2019-05-10T05:21:59.039Z,72.28
2019-05-10T05:24:28.472Z,72.28
2019-05-10T05:26:57.826Z,72.43
2019-05-10T05:29:27.189Z,69.96
2019-05-10T05:32:01.286Z,70.76
2019-05-10T05:34:27.637Z,71.91
2019-05-10T05:36:57.005Z,70.48
2019-05-10T05:39:26.557Z,70.39
2019-05-10T05:41:56.628Z,68.50
2019-05-10T05:44:27.943Z,68.07
2019-05-10T05:46:57.681Z,66.47
2019-05-10T05:49:27.116Z,65.76
2019-05-10T05:51:56.486Z,65.34
2019-05-10T05:54:25.959Z,65.63
2019-05-10T05:56:55.364Z,66.71
2019-05-10T05:59:26.333Z,67.05
2019-05-10T06:02:00.866Z,65.76
2019-05-10T06:04:27.031Z,64.76
2019-05-10T06:06:59.129Z,64.00
2019-05-10T06:09:32.070Z,61.03
2019-05-10T06:11:58.697Z,62.30
2019-05-10T06:14:28.138Z,64.03
2019-05-10T06:16:57.569Z,61.95
2019-05-10T06:19:29.562Z,61.22
2019-05-10T06:22:04.042Z,60.10
2019-05-10T06:24:29.212Z,61.85
2019-05-10T06:27:03.532Z,61.69
2019-05-10T06:29:29.938Z,63.83
2019-05-10T06:31:59.346Z,60.18
2019-05-10T06:34:38.512Z,61.80
2019-05-10T06:37:03.111Z,59.95
2019-05-10T06:39:32.607Z,56.53
2019-05-10T06:42:02.195Z,57.09
2019-05-10T06:44:33.169Z,54.18
2019-05-10T06:47:08.162Z,52.87
2019-05-10T06:49:33.858Z,53.50
2019-05-10T06:52:03.326Z,55.96
2019-05-10T06:54:32.869Z,55.28
2019-05-10T06:57:02.475Z,52.39
2019-05-10T06:59:31.907Z,54.78
2019-05-10T07:02:01.484Z,57.65
2019-05-10T07:04:35.209Z,56.02
2019-05-10T07:07:02.166Z,54.47
2019-05-10T07:09:59.980Z,55.36
2019-05-10T07:12:02.826Z,53.50
2019-05-10T07:14:32.285Z,54.46
2019-05-10T07:17:02.923Z,55.29
2019-05-10T07:19:34.771Z,53.68
2019-05-10T07:22:04.415Z,50.99
2019-05-10T07:24:33.840Z,50.75
2019-05-10T07:27:05.710Z,48.16
2019-05-10T07:29:42.082Z,48.16
2019-05-10T07:32:05.970Z,47.26
2019-05-10T07:34:35.387Z,49.89
2019-05-10T07:37:04.887Z,49.70
2019-05-10T07:39:34.402Z,50.23
2019-05-10T07:42:06.769Z,50.23
2019-05-10T07:44:34.947Z,51.18
2019-05-10T07:47:04.462Z,53.15
2019-05-10T07:49:33.919Z,54.05
2019-05-10T07:52:04.462Z,53.84
2019-05-10T07:54:37.659Z,53.13
2019-05-10T07:57:05.214Z,55.25
2019-05-10T07:59:49.493Z,55.07
2019-05-10T08:02:12.561Z,53.88
2019-05-10T08:04:38.447Z,54.42
2019-05-10T08:07:10.390Z,52.61
2019-05-10T08:09:44.827Z,48.07
2019-05-10T08:12:13.016Z,48.07
2019-05-10T08:14:44.505Z,48.50
2019-05-10T08:17:12.735Z,48.50
2019-05-10T08:19:42.162Z,53.19
2019-05-10T08:22:13.068Z,53.00
2019-05-10T08:24:44.553Z,50.57
2019-05-10T08:27:14.820Z,50.13
2019-05-10T08:29:44.953Z,48.72
2019-05-10T08:32:14.436Z,48.25
2019-05-10T08:34:51.654Z,46.50
2019-05-10T08:37:19.404Z,45.61
2019-05-10T08:39:49.561Z,46.33
2019-05-10T08:42:34.738Z,46.96
2019-05-10T08:45:03.181Z,45.63
2019-05-10T08:47:27.328Z,45.63
2019-05-10T08:50:08.728Z,46.05
2019-05-10T08:52:30.674Z,45.11
2019-05-10T08:54:56.492Z,45.34
2019-05-10T08:57:26.070Z,45.34
2019-05-10T09:00:03.272Z,43.86
2019-05-10T09:02:29.305Z,43.89
2019-05-10T09:04:58.253Z,43.58
2019-05-10T09:07:29.357Z,43.78
2019-05-10T09:09:58.692Z,43.93
2019-05-10T09:12:29.674Z,45.73
2019-05-10T09:15:06.729Z,45.44
2019-05-10T09:17:32.347Z,46.12
2019-05-10T09:20:02.633Z,46.38
2019-05-10T09:22:38.233Z,46.87
2019-05-10T09:25:03.398Z,48.78
2019-05-10T09:27:33.403Z,49.28
2019-05-10T09:30:03.153Z,49.23
2019-05-10T09:32:35.591Z,49.30
2019-05-10T09:35:09.109Z,49.16
2019-05-10T09:37:37.491Z,49.16
2019-05-10T09:40:09.899Z,47.73
2019-05-10T09:42:42.690Z,46.44
2019-05-10T09:45:12.643Z,45.92
2019-05-10T09:47:43.515Z,45.14
2019-05-10T09:52:42.373Z,45.42
2019-05-10T09:55:14.835Z,45.42
2019-05-10T09:57:43.046Z,44.22
2019-05-10T10:00:13.188Z,45.37
2019-05-10T10:02:47.896Z,42.96
2019-05-10T10:05:14.618Z,41.14
2019-05-10T10:07:44.083Z,40.56
2019-05-10T10:10:21.267Z,38.79
2019-05-10T10:12:47.385Z,38.29
2019-05-10T10:15:28.160Z,38.29
2019-05-10T10:17:47.738Z,38.51
2019-05-10T10:20:16.952Z,37.71
2019-05-10T10:22:49.721Z,37.64
2019-05-10T10:25:20.040Z,36.90
2019-05-10T10:27:49.436Z,36.98
2019-05-10T10:30:21.509Z,36.29
2019-05-10T10:32:50.500Z,35.13
2019-05-10T10:35:26.505Z,34.84
2019-05-10T10:37:52.722Z,33.65
2019-05-10T10:40:35.481Z,31.44
2019-05-10T10:43:03.376Z,32.58
2019-05-10T10:45:32.952Z,32.45
2019-05-10T10:48:12.898Z,33.89
2019-05-10T10:50:44.288Z,33.88
2019-05-10T10:53:17.942Z,34.42
2019-05-10T10:55:54.144Z,33.43
2019-05-10T10:58:27.625Z,32.18
2019-05-10T11:00:56.876Z,33.45
2019-05-10T11:03:30.183Z,32.63
2019-05-10T11:05:57.083Z,31.69
2019-05-10T11:08:26.385Z,30.08
2019-05-10T11:10:55.579Z,29.22
2019-05-10T11:13:41.450Z,31.54
2019-05-10T11:15:59.014Z,28.11
2019-05-10T11:18:27.039Z,28.89
2019-05-10T11:21:01.959Z,30.45
2019-05-10T11:23:39.139Z,28.41
2019-05-10T11:26:05.435Z,28.69
2019-05-10T11:28:38.789Z,30.30
2019-05-10T11:31:07.262Z,32.19
2019-05-10T11:33:36.559Z,32.89
2019-05-10T11:36:08.697Z,32.80
2019-05-10T11:38:37.116Z,31.68
2019-05-10T11:41:13.406Z,30.43
2019-05-10T11:43:38.855Z,31.86
2019-05-10T11:46:08.046Z,31.50
2019-05-10T11:48:42.183Z,32.52
2019-05-10T11:51:17.170Z,32.58
2019-05-10T11:56:17.460Z,32.08
2019-05-10T11:58:55.020Z,33.79
2019-05-10T11:59:04.878Z,32.47
2019-05-10T12:04:22.683Z,34.39
2019-05-10T12:06:49.881Z,35.04
2019-05-10T12:09:21.359Z,35.32
2019-05-10T12:12:03.022Z,33.41
2019-05-10T12:14:32.083Z,32.95
2019-05-10T12:17:05.632Z,33.78
2019-05-10T12:19:36.686Z,34.73
2019-05-10T12:22:04.728Z,33.62
2019-05-10T12:24:52.205Z,33.10
2019-05-10T12:27:12.932Z,32.20
2019-05-10T12:29:35.898Z,32.14
2019-05-10T12:32:05.213Z,30.77
2019-05-10T12:34:34.421Z,30.97
2019-05-10T12:37:08.221Z,32.23
2019-05-10T12:39:36.682Z,30.00
2019-05-10T12:42:07.495Z,30.76
2019-05-10T12:44:46.315Z,31.07
2019-05-10T12:47:11.348Z,30.83
2019-05-10T12:49:42.272Z,30.48
2019-05-10T12:52:14.177Z,31.97
2019-05-10T12:54:42.387Z,33.35
2019-05-10T12:57:11.414Z,34.26
2019-05-10T12:59:40.812Z,34.21
2019-05-10T13:02:13.337Z,30.68
2019-05-10T13:04:47.270Z,29.67
2019-05-10T13:07:13.456Z,28.81
2019-05-10T13:09:42.840Z,29.51
2019-05-10T13:12:11.984Z,29.62
2019-05-10T13:14:51.801Z,29.00
2019-05-10T13:17:17.056Z,27.94
2019-05-10T13:19:47.294Z,27.64
2019-05-10T13:22:19.312Z,29.41
2019-05-10T13:24:50.139Z,30.18
2019-05-10T13:27:24.043Z,29.44
2019-05-10T13:29:53.776Z,31.40
2019-05-10T13:32:24.732Z,31.61
2019-05-10T13:34:55.846Z,30.75
2019-05-10T13:37:27.437Z,28.93
2019-05-10T13:40:04.705Z,29.91
2019-05-10T13:42:36.483Z,31.02
2019-05-10T13:45:05.625Z,28.87
2019-05-10T13:47:36.968Z,28.29
2019-05-10T13:50:08.256Z,28.02
2019-05-10T13:52:40.880Z,29.65
2019-05-10T13:55:11.996Z,30.86
2019-05-10T13:57:45.475Z,30.65
2019-05-10T14:00:15.308Z,31.05
2019-05-10T14:02:46.487Z,29.91
2019-05-10T14:05:19.888Z,30.14
2019-05-10T14:07:52.269Z,29.75
2019-05-10T14:10:23.247Z,31.62
2019-05-10T14:12:50.714Z,29.54
2019-05-10T14:15:20.015Z,29.99
2019-05-10T14:17:50.729Z,28.77
2019-05-10T14:20:25.307Z,27.98
2019-05-10T14:22:55.840Z,28.07
2019-05-10T14:25:23.358Z,28.99
2019-05-10T14:27:53.885Z,28.30
2019-05-10T14:30:22.981Z,28.09
2019-05-10T14:32:52.163Z,28.33
2019-05-10T14:35:22.624Z,29.02
2019-05-10T14:37:52.222Z,29.23
2019-05-10T14:40:30.777Z,31.50
2019-05-10T14:42:55.849Z,31.07
2019-05-10T14:45:25.234Z,31.11
2019-05-10T14:47:54.412Z,31.46
2019-05-10T14:50:25.987Z,31.42
2019-05-10T14:52:59.175Z,32.02
2019-05-10T14:55:34.605Z,32.22
2019-05-10T14:58:04.210Z,32.88
2019-05-10T15:00:35.877Z,32.60
2019-05-10T15:03:05.220Z,32.64
2019-05-10T15:05:37.433Z,32.81
2019-05-10T15:08:06.720Z,32.11
2019-05-10T15:10:39.918Z,30.57
2019-05-10T15:13:09.873Z,30.20
2019-05-10T15:15:39.362Z,31.16
2019-05-10T15:18:08.965Z,31.05
2019-05-10T15:20:38.197Z,32.45
2019-05-10T15:23:07.756Z,33.81
2019-05-10T15:25:37.109Z,36.24
2019-05-10T15:28:06.880Z,36.36
2019-05-10T15:30:39.108Z,36.79
2019-05-10T15:33:07.669Z,37.63
2019-05-10T15:35:37.063Z,37.62
2019-05-10T15:38:06.473Z,37.44
2019-05-10T15:40:38.581Z,38.01
2019-05-10T15:43:10.744Z,38.44
2019-05-10T15:45:38.377Z,37.99
2019-05-10T15:48:07.723Z,37.99
2019-05-10T15:50:38.590Z,37.98
2019-05-10T15:53:08.456Z,38.81
2019-05-10T15:55:38.141Z,39.28
2019-05-10T15:58:07.672Z,39.73
2019-05-10T16:00:39.352Z,39.73
2019-05-10T16:03:08.279Z,40.41
2019-05-10T16:05:43.577Z,40.45
2019-05-10T16:08:08.990Z,40.42
2019-05-10T16:10:40.743Z,41.26
2019-05-10T16:13:15.118Z,40.78
2019-05-10T16:15:40.830Z,41.03
2019-05-10T16:18:10.395Z,41.27
2019-05-10T16:20:39.822Z,40.55
2019-05-10T16:23:11.209Z,40.55
2019-05-10T16:25:47.570Z,40.57
2019-05-10T16:28:15.437Z,40.31
2019-05-10T16:30:43.113Z,40.34
2019-05-10T16:33:15.615Z,40.34
2019-05-10T16:35:48.801Z,39.67
2019-05-10T16:38:15.290Z,39.28
2019-05-10T16:40:50.714Z,39.28
2019-05-10T16:43:22.288Z,39.09
2019-05-10T16:45:47.534Z,39.12
2019-05-10T16:48:17.032Z,40.08
2019-05-10T16:50:46.748Z,40.08
2019-05-10T16:53:16.190Z,40.23
2019-05-10T16:55:45.596Z,40.23
2019-05-10T16:58:17.816Z,41.43
2019-05-10T17:00:47.852Z,41.43
2019-05-10T17:03:20.462Z,42.17
2019-05-10T17:05:53.665Z,43.27
2019-05-10T17:08:19.882Z,43.74
2019-05-10T17:10:49.338Z,43.74
2019-05-10T17:13:18.679Z,43.55
2019-05-10T17:15:48.347Z,43.55
2019-05-10T17:18:19.841Z,43.69
2019-05-10T17:20:50.949Z,42.78
2019-05-10T17:23:20.146Z,43.39
2019-05-10T17:25:49.567Z,43.39
2019-05-10T17:28:19.046Z,44.24
2019-05-10T17:30:48.600Z,44.62
2019-05-10T17:33:18.008Z,45.42
2019-05-10T17:35:47.506Z,45.70
2019-05-10T17:38:17.089Z,46.57
2019-05-10T17:40:49.801Z,46.92
2019-05-10T17:43:20.605Z,46.97
2019-05-10T17:45:49.509Z,47.57
2019-05-10T17:48:18.990Z,47.19
2019-05-10T17:50:48.473Z,47.49
2019-05-10T17:53:17.912Z,48.01
2019-05-10T17:55:49.327Z,47.84
2019-05-10T17:58:18.443Z,48.08
2019-05-10T18:00:47.833Z,47.76
2019-05-10T18:03:17.263Z,47.49
2019-05-10T18:05:51.215Z,48.32
2019-05-10T18:08:17.942Z,48.37
2019-05-10T18:10:48.890Z,48.71
2019-05-10T18:13:18.273Z,47.82
2019-05-10T18:15:47.698Z,47.95
2019-05-10T18:18:17.157Z,47.48
2019-05-10T18:20:46.613Z,47.96
2019-05-10T18:23:20.894Z,47.59
2019-05-10T18:25:47.050Z,47.94
2019-05-10T18:28:20.800Z,48.57
2019-05-10T18:30:47.656Z,48.30
2019-05-10T18:33:17.026Z,48.44
2019-05-10T18:35:52.208Z,47.95
2019-05-10T18:38:18.516Z,47.67
2019-05-10T18:40:47.951Z,47.81
2019-05-10T18:43:17.405Z,47.74
2019-05-10T18:45:46.844Z,48.08
2019-05-10T18:48:16.287Z,48.32
2019-05-10T18:50:47.370Z,48.32
2019-05-10T18:53:16.835Z,48.39
2019-05-10T18:55:46.403Z,48.49
2019-05-10T18:58:15.929Z,48.60
2019-05-10T19:00:45.803Z,48.42
2019-05-10T19:03:15.177Z,48.33
2019-05-10T19:05:44.620Z,48.37
2019-05-10T19:08:14.063Z,48.23
2019-05-10T19:10:43.514Z,48.18
2019-05-10T19:13:13.480Z,48.23
2019-05-10T19:15:46.291Z,48.47
2019-05-10T19:18:17.675Z,48.45
2019-05-10T19:20:48.849Z,48.53
2019-05-10T19:23:19.363Z,48.89
2019-05-10T19:25:51.656Z,49.33
2019-05-10T19:28:20.814Z,49.03
2019-05-10T19:30:52.676Z,49.32
2019-05-10T19:33:21.948Z,49.79
2019-05-10T19:35:51.398Z,50.32
2019-05-10T19:38:20.831Z,50.84
2019-05-10T19:40:50.255Z,51.17
2019-05-10T19:43:21.709Z,51.67
2019-05-10T19:45:56.670Z,51.74
2019-05-10T19:48:22.030Z,51.27
2019-05-10T19:50:51.439Z,51.48
2019-05-10T19:53:20.879Z,51.60
2019-05-10T19:55:51.368Z,51.90
2019-05-10T19:58:21.497Z,51.52
2019-05-10T20:00:50.845Z,51.63
2019-05-10T20:03:20.207Z,51.82
2019-05-10T20:05:49.587Z,52.05
2019-05-10T20:08:18.935Z,52.30
2019-05-10T20:10:48.289Z,53.23
2019-05-10T20:13:17.738Z,53.67
2019-05-10T20:15:47.095Z,54.22
2019-05-10T20:18:16.451Z,53.56
2019-05-10T20:20:45.995Z,53.33
2019-05-10T20:23:15.437Z,53.72
2019-05-10T20:25:44.797Z,53.74
2019-05-10T20:28:14.222Z,53.63
2019-05-10T20:30:43.593Z,54.33
2019-05-10T20:33:13.006Z,53.87
2019-05-10T20:35:42.379Z,54.06
2019-05-10T20:38:11.815Z,54.20
2019-05-10T20:40:41.388Z,54.89
2019-05-10T20:43:10.755Z,54.74
2019-05-10T20:45:40.126Z,55.41
2019-05-10T20:48:09.574Z,55.66
2019-05-10T20:50:38.954Z,56.04
2019-05-10T20:53:08.312Z,56.37
2019-05-10T20:55:37.826Z,56.79
2019-05-10T20:58:07.353Z,56.38
2019-05-10T21:00:36.765Z,56.37
2019-05-10T21:03:06.276Z,56.55
2019-05-10T21:05:35.747Z,56.53
2019-05-10T21:08:16.625Z,56.54
2019-05-10T21:10:36.327Z,56.07
2019-05-10T21:13:05.691Z,56.36
2019-05-10T21:15:35.049Z,56.77
2019-05-10T21:18:04.395Z,58.60
2019-05-10T21:20:33.781Z,59.75
2019-05-10T21:23:03.137Z,59.74
2019-05-10T21:25:32.589Z,59.77
2019-05-10T21:28:01.952Z,59.60
2019-05-10T21:30:31.425Z,59.68
2019-05-10T21:33:00.847Z,59.70
2019-05-10T21:35:30.430Z,59.28
2019-05-10T21:37:59.800Z,59.41
2019-05-10T21:40:29.216Z,59.27
2019-05-10T21:42:58.655Z,59.72
2019-05-10T21:45:28.086Z,59.59
2019-05-10T21:47:57.522Z,60.57
2019-05-10T21:50:26.952Z,60.31
2019-05-10T21:52:56.313Z,60.53
2019-05-10T21:55:25.756Z,61.03
2019-05-10T21:57:55.129Z,61.46
2019-05-10T22:00:26.207Z,61.69
2019-05-10T22:02:55.644Z,61.42
2019-05-10T22:05:25.073Z,61.60
2019-05-10T22:07:54.436Z,62.17
2019-05-10T22:10:23.821Z,62.32
2019-05-10T22:12:53.183Z,62.34
2019-05-10T22:15:22.550Z,62.65
2019-05-10T22:17:51.903Z,62.41
2019-05-10T22:20:21.254Z,61.80
2019-05-10T22:22:50.602Z,62.17
2019-05-10T22:25:19.973Z,61.90
2019-05-10T22:27:49.337Z,61.80
2019-05-10T22:30:18.853Z,62.23
2019-05-10T22:32:48.307Z,62.25
2019-05-10T22:35:17.764Z,62.83
2019-05-10T22:37:47.116Z,61.61
2019-05-10T22:40:16.566Z,62.57
2019-05-10T22:42:45.952Z,62.04
2019-05-10T22:45:15.433Z,62.34
2019-05-10T22:47:44.861Z,62.78
2019-05-10T22:50:14.832Z,63.08
2019-05-10T22:52:44.237Z,63.57
2019-05-10T22:55:13.839Z,64.53
2019-05-10T22:57:43.155Z,64.68
2019-05-10T23:00:12.946Z,64.87
2019-05-10T23:02:42.289Z,64.59
2019-05-10T23:05:11.734Z,64.81
2019-05-10T23:07:41.170Z,64.75
2019-05-10T23:10:11.014Z,64.66
2019-05-10T23:12:40.444Z,64.23
2019-05-10T23:15:09.884Z,63.75
2019-05-10T23:17:39.300Z,62.62
2019-05-10T23:20:08.754Z,61.85
2019-05-10T23:22:38.108Z,61.59
2019-05-10T23:25:08.144Z,61.10
2019-05-10T23:27:37.565Z,61.44
2019-05-10T23:30:07.190Z,61.59
2019-05-10T23:32:36.596Z,61.70
2019-05-10T23:35:06.733Z,61.36
2019-05-10T23:37:36.103Z,61.39
2019-05-10T23:40:08.727Z,61.62
2019-05-10T23:42:38.133Z,61.67
2019-05-10T23:45:07.707Z,61.75
2019-05-10T23:47:37.071Z,61.95
2019-05-10T23:50:07.191Z,61.26
2019-05-10T23:52:36.623Z,61.14
2019-05-10T23:55:07.038Z,60.44
2019-05-10T23:57:36.465Z,60.70
